< Typhoon 195917 1959 Season Typhoon 195919 >
Typhoon 195918 (CHARLOTTE)
General InformationTrack Information on Google Maps || NewsDisaster Info.ResourceGoogle EarthGE AnimationAtom FeedGeoJSON
Detalied Best Track (Time Zone = UTC)
Year Month Day Hour Lat. Long. Pressure (hPa) Wind (kt) Class Image Chart
1959 10 9 00 10.2 137.5 1008 0 2 -- Chart
1959 10 9 06 10.8 136.8 1006 0 2 -- Chart
1959 10 9 12 11.3 136.0 1004 0 2 -- Chart
1959 10 9 18 11.8 135.3 1002 0 2 -- Chart
1959 10 10 00 12.2 134.7 1000 0 2 -- Chart
1959 10 10 06 12.8 134.1 998 0 2 -- Chart
1959 10 10 12 13.2 133.4 995 0 9 -- Chart
1959 10 10 18 13.6 133.0 990 0 9 -- Chart
1959 10 11 00 14.2 132.0 990 0 9 -- Chart
1959 10 11 06 14.6 131.2 985 0 9 -- Chart
1959 10 11 12 14.7 130.5 980 0 9 -- Chart
1959 10 11 18 15.1 129.7 975 0 9 -- Chart
1959 10 12 00 15.7 129.1 970 0 9 -- Chart
1959 10 12 06 16.1 128.1 960 0 9 -- Chart
1959 10 12 12 16.7 127.2 950 0 9 -- Chart
1959 10 12 18 17.1 126.4 940 0 9 -- Chart
1959 10 13 00 17.7 126.0 920 0 9 -- Chart
1959 10 13 06 18.1 125.6 905 0 9 -- Chart
1959 10 13 12 18.5 125.4 905 0 9 -- Chart
1959 10 13 18 18.9 125.1 905 0 9 -- Chart
1959 10 14 00 19.5 124.8 910 0 9 -- Chart
1959 10 14 06 20.1 124.7 915 0 9 -- Chart
1959 10 14 12 20.8 124.5 920 0 9 -- Chart
1959 10 14 18 21.4 124.2 925 0 9 -- Chart
1959 10 15 00 21.7 124.3 930 0 9 -- Chart
1959 10 15 06 22.3 124.6 935 0 9 -- Chart
1959 10 15 12 22.9 125.1 940 0 9 -- Chart
1959 10 15 18 24.0 125.6 950 0 9 -- Chart
1959 10 16 00 24.5 126.4 955 0 9 -- Chart
1959 10 16 06 25.1 127.2 960 0 9 -- Chart
1959 10 16 12 25.5 127.9 960 0 9 -- Chart
1959 10 16 18 25.9 128.6 965 0 9 -- Chart
1959 10 17 00 26.2 129.1 965 0 9 -- Chart
1959 10 17 06 27.1 130.0 970 0 9 -- Chart
1959 10 17 12 27.5 131.0 970 0 9 -- Chart
1959 10 17 18 28.2 131.8 975 0 9 -- Chart
1959 10 18 00 28.5 132.3 975 0 9 -- Chart
1959 10 18 06 29.8 133.8 975 0 9 -- Chart
1959 10 18 12 31.3 135.6 980 0 9 -- Chart
1959 10 18 18 33.2 139.3 990 0 9 -- Chart
1959 10 19 00 34.2 141.8 990 0 9 -- Chart
1959 10 19 06 35.0 146.0 992 0 6 -- Chart
1959 10 19 12 35.0 150.0 998 0 6 -- Chart
1959 10 19 18 35.8 156.0 1000 0 6 -- Chart
1959 10 20 00 36.0 161.0 1000 0 6 -- Chart
1959 10 20 06 36.0 165.0 998 0 6 -- Chart
Japan Meteorological Agency Best Track Data | Correction Date : 1989-06-01
< Typhoon 195917 1959 Season Typhoon 195919 >

Help